createdAt,value
2018-10-05T00:01:12.000Z,86.38
2018-10-05T00:03:40.808Z,86.24
2018-10-05T00:06:09.730Z,86.23
2018-10-05T00:08:38.789Z,86.48
2018-10-05T00:11:07.901Z,86.24
2018-10-05T00:13:36.828Z,86.50
2018-10-05T00:16:05.761Z,86.81
2018-10-05T00:18:34.557Z,86.61
2018-10-05T00:21:03.836Z,86.80
2018-10-05T00:23:32.679Z,87.00
2018-10-05T00:26:01.694Z,87.13
2018-10-05T00:28:30.557Z,86.89
2018-10-05T00:30:59.733Z,87.13
2018-10-05T00:33:28.610Z,87.38
2018-10-05T00:35:57.495Z,86.61
2018-10-05T00:38:26.454Z,86.96
2018-10-05T00:40:58.376Z,87.33
2018-10-05T00:43:27.696Z,87.84
2018-10-05T00:45:56.578Z,87.35
2018-10-05T00:48:25.468Z,87.08
2018-10-05T00:50:54.326Z,87.45
2018-10-05T00:53:23.251Z,87.23
2018-10-05T00:55:52.093Z,86.98
2018-10-05T00:58:21.003Z,87.00
2018-10-05T01:00:49.931Z,87.35
2018-10-05T01:03:18.844Z,87.14
2018-10-05T01:05:47.714Z,87.65
2018-10-05T01:08:16.888Z,87.56
2018-10-05T01:10:45.745Z,87.51
2018-10-05T01:13:14.613Z,87.42
2018-10-05T01:15:43.614Z,87.52
2018-10-05T01:18:12.490Z,87.67
2018-10-05T01:20:41.602Z,87.99
2018-10-05T01:23:10.530Z,87.52
2018-10-05T01:25:39.358Z,88.24
2018-10-05T01:28:08.532Z,88.06
2018-10-05T01:30:37.451Z,88.36
2018-10-05T01:33:06.455Z,88.31
2018-10-05T01:35:35.344Z,88.33
2018-10-05T01:38:04.213Z,88.79
2018-10-05T01:40:33.192Z,88.88
2018-10-05T01:43:02.071Z,88.51
2018-10-05T01:45:30.972Z,88.93
2018-10-05T01:47:59.821Z,88.44
2018-10-05T01:50:28.687Z,88.89
2018-10-05T01:52:57.565Z,89.79
2018-10-05T01:55:26.467Z,89.61
2018-10-05T01:57:55.302Z,89.92
2018-10-05T02:00:24.190Z,91.58
2018-10-05T02:02:53.326Z,92.54
2018-10-05T02:05:22.334Z,92.69
2018-10-05T02:07:51.192Z,91.28
2018-10-05T02:10:20.210Z,90.47
2018-10-05T02:12:49.048Z,90.74
2018-10-05T02:15:18.025Z,91.26
2018-10-05T02:17:46.898Z,91.64
2018-10-05T02:20:15.811Z,91.21
2018-10-05T02:22:44.612Z,91.92
2018-10-05T02:25:13.439Z,92.65
2018-10-05T02:27:42.247Z,91.73
2018-10-05T02:30:11.157Z,91.46
2018-10-05T02:32:40.043Z,91.93
2018-10-05T02:35:08.972Z,93.05
2018-10-05T02:37:37.886Z,93.40
2018-10-05T02:40:06.764Z,94.56
2018-10-05T02:42:35.724Z,94.24
2018-10-05T02:45:04.710Z,95.19
2018-10-05T02:47:33.619Z,95.71
2018-10-05T02:50:02.478Z,95.68
2018-10-05T02:52:31.332Z,95.32
2018-10-05T02:55:00.244Z,95.74
2018-10-05T02:57:29.095Z,95.50
2018-10-05T02:59:57.872Z,96.24
2018-10-05T03:02:32.732Z,96.61
2018-10-05T03:05:01.804Z,96.12
2018-10-05T03:07:31.623Z,95.93
2018-10-05T03:10:01.459Z,95.72
2018-10-05T03:12:30.288Z,94.99
2018-10-05T03:14:59.077Z,95.90
2018-10-05T03:17:28.042Z,95.41
2018-10-05T03:19:57.320Z,96.76
2018-10-05T03:22:26.183Z,96.37
2018-10-05T03:24:54.976Z,96.02
2018-10-05T03:27:23.859Z,96.09
2018-10-05T03:29:52.840Z,95.71
2018-10-05T03:32:21.680Z,96.09
2018-10-05T03:34:50.544Z,96.02
2018-10-05T03:37:19.393Z,95.41
2018-10-05T03:39:48.239Z,95.51
2018-10-05T03:42:17.136Z,96.03
2018-10-05T03:44:46.049Z,95.45
2018-10-05T03:47:14.887Z,95.30
2018-10-05T03:49:43.773Z,95.78
2018-10-05T03:52:12.652Z,95.45
2018-10-05T03:54:41.540Z,95.00
2018-10-05T03:57:10.663Z,93.73
2018-10-05T03:59:39.573Z,93.19
2018-10-05T04:02:08.420Z,93.25
2018-10-05T04:04:37.305Z,93.45
2018-10-05T04:07:06.369Z,93.30
2018-10-05T04:09:35.269Z,93.85
2018-10-05T04:12:04.166Z,93.89
2018-10-05T04:14:33.024Z,93.18
2018-10-05T04:17:01.850Z,93.26
2018-10-05T04:19:30.948Z,93.55
2018-10-05T04:21:59.812Z,93.65
2018-10-05T04:24:28.675Z,93.88
2018-10-05T04:26:57.565Z,93.93
2018-10-05T04:29:26.420Z,93.75
2018-10-05T04:31:55.528Z,93.73
2018-10-05T04:34:24.367Z,94.19
2018-10-05T04:36:53.229Z,94.25
2018-10-05T04:39:22.137Z,94.15
2018-10-05T04:41:51.131Z,94.35
2018-10-05T04:44:19.997Z,94.95
2018-10-05T04:46:48.925Z,95.00
2018-10-05T04:49:17.760Z,95.27
2018-10-05T04:51:46.665Z,94.86
2018-10-05T04:54:15.548Z,94.65
2018-10-05T04:56:44.825Z,94.78
2018-10-05T04:59:13.647Z,95.03
2018-10-05T05:01:43.008Z,95.18
2018-10-05T05:04:11.833Z,96.34
2018-10-05T05:06:40.757Z,96.82
2018-10-05T05:09:10.042Z,97.91
2018-10-05T05:11:38.954Z,98.06
2018-10-05T05:14:07.957Z,99.05
2018-10-05T05:16:36.801Z,99.41
2018-10-05T05:19:06.311Z,99.17
2018-10-05T05:21:35.332Z,97.76
2018-10-05T05:24:04.200Z,96.85
2018-10-05T05:26:33.056Z,96.79
2018-10-05T05:29:01.937Z,96.27
2018-10-05T05:31:30.780Z,95.87
2018-10-05T05:33:59.773Z,95.41
2018-10-05T05:36:28.612Z,95.19
2018-10-05T05:38:57.489Z,95.53
2018-10-05T05:41:26.314Z,95.45
2018-10-05T05:43:55.208Z,95.19
2018-10-05T05:46:24.112Z,95.13
2018-10-05T05:48:53.037Z,95.02
2018-10-05T05:51:21.895Z,94.83
2018-10-05T05:53:50.864Z,95.10
2018-10-05T05:56:19.684Z,95.73
2018-10-05T05:58:48.654Z,95.68
2018-10-05T06:01:17.538Z,95.58
2018-10-05T06:03:46.424Z,96.11
2018-10-05T06:06:15.326Z,95.91
2018-10-05T06:08:44.607Z,96.29
2018-10-05T06:11:13.868Z,96.68
2018-10-05T06:13:42.689Z,97.61
2018-10-05T06:16:11.665Z,97.85
2018-10-05T06:18:40.449Z,97.56
2018-10-05T06:21:09.347Z,96.74
2018-10-05T06:23:38.322Z,95.40
2018-10-05T06:26:07.256Z,95.17
2018-10-05T06:28:36.089Z,94.18
2018-10-05T06:31:05.054Z,94.81
2018-10-05T06:33:33.991Z,95.87
2018-10-05T06:36:02.958Z,96.68
2018-10-05T06:38:31.838Z,96.98
2018-10-05T06:41:00.781Z,96.89
2018-10-05T06:43:29.672Z,96.79
2018-10-05T06:45:58.567Z,96.11
2018-10-05T06:48:27.506Z,95.91
2018-10-05T06:50:56.472Z,96.03
2018-10-05T06:53:25.678Z,95.31
2018-10-05T06:55:54.586Z,95.34
2018-10-05T06:58:23.399Z,94.76
2018-10-05T07:00:52.416Z,93.60
2018-10-05T07:03:23.975Z,91.66
2018-10-05T07:05:53.462Z,91.15
2018-10-05T07:08:22.575Z,91.17
2018-10-05T07:10:51.557Z,90.11
2018-10-05T07:13:20.518Z,89.37
2018-10-05T07:15:49.343Z,89.70
2018-10-05T07:18:18.202Z,88.87
2018-10-05T07:20:47.100Z,88.54
2018-10-05T07:23:15.944Z,87.47
2018-10-05T07:25:45.472Z,86.44
2018-10-05T07:28:14.403Z,85.67
2018-10-05T07:30:43.263Z,85.40
2018-10-05T07:33:12.131Z,85.08
2018-10-05T07:35:41.006Z,84.53
2018-10-05T07:38:09.975Z,83.93
2018-10-05T07:40:38.830Z,83.36
2018-10-05T07:43:07.764Z,82.90
2018-10-05T07:45:36.570Z,82.70
2018-10-05T07:48:05.567Z,81.66
2018-10-05T07:50:34.533Z,81.18
2018-10-05T07:53:03.665Z,80.79
2018-10-05T07:55:32.532Z,79.60
2018-10-05T07:58:02.049Z,79.08
2018-10-05T08:00:30.893Z,78.65
2018-10-05T08:02:59.854Z,77.47
2018-10-05T08:05:28.665Z,77.04
2018-10-05T08:07:57.645Z,77.17
2018-10-05T08:10:26.538Z,76.80
2018-10-05T08:12:55.404Z,75.68
2018-10-05T08:15:24.392Z,75.98
2018-10-05T08:17:53.235Z,75.14
2018-10-05T08:20:22.215Z,75.41
2018-10-05T08:22:51.131Z,74.34
2018-10-05T08:25:20.057Z,73.89
2018-10-05T08:27:48.981Z,74.30
2018-10-05T08:30:17.856Z,73.13
2018-10-05T08:32:46.694Z,73.33
2018-10-05T08:35:15.609Z,72.39
2018-10-05T08:37:44.437Z,72.53
2018-10-05T08:40:13.399Z,72.73
2018-10-05T08:42:42.228Z,71.73
2018-10-05T08:45:11.176Z,71.80
2018-10-05T08:47:40.103Z,71.93
2018-10-05T08:50:09.038Z,71.30
2018-10-05T08:52:38.011Z,71.30
2018-10-05T08:55:07.061Z,70.77
2018-10-05T08:57:35.890Z,71.07
2018-10-05T09:00:05.376Z,71.37
2018-10-05T09:02:34.300Z,70.92
2018-10-05T09:05:03.379Z,71.37
2018-10-05T09:07:32.193Z,70.53
2018-10-05T09:10:00.969Z,69.80
2018-10-05T09:12:29.857Z,69.68
2018-10-05T09:14:59.017Z,69.55
2018-10-05T09:17:28.037Z,69.75
2018-10-05T09:19:56.890Z,68.71
2018-10-05T09:22:25.857Z,69.41
2018-10-05T09:24:55.161Z,69.17
2018-10-05T09:27:24.053Z,69.15
2018-10-05T09:29:52.962Z,69.64
2018-10-05T09:32:22.072Z,69.18
2018-10-05T09:34:50.903Z,69.49
2018-10-05T09:37:19.976Z,68.98
2018-10-05T09:39:49.075Z,67.16
2018-10-05T09:42:18.080Z,67.88
2018-10-05T09:44:46.965Z,67.76
2018-10-05T09:47:15.928Z,67.16
2018-10-05T09:49:44.734Z,68.04
2018-10-05T09:52:14.006Z,66.66
2018-10-05T09:54:43.143Z,66.90
2018-10-05T09:57:12.020Z,66.82
2018-10-05T09:59:41.256Z,66.47
2018-10-05T10:02:22.652Z,66.73
2018-10-05T10:04:51.578Z,66.26
2018-10-05T10:07:20.470Z,66.30
2018-10-05T10:09:49.342Z,65.96
2018-10-05T10:12:18.585Z,65.61
2018-10-05T10:14:47.500Z,65.47
2018-10-05T10:17:16.407Z,65.37
2018-10-05T10:19:45.237Z,65.60
2018-10-05T10:22:14.105Z,64.32
2018-10-05T10:24:43.009Z,64.89
2018-10-05T10:27:11.865Z,64.59
2018-10-05T10:29:40.788Z,63.91
2018-10-05T10:32:09.633Z,64.12
2018-10-05T10:34:38.521Z,64.49
2018-10-05T10:37:07.340Z,63.30
2018-10-05T10:39:36.220Z,62.91
2018-10-05T10:42:05.088Z,62.54
2018-10-05T10:44:33.940Z,63.05
2018-10-05T10:47:02.841Z,63.19
2018-10-05T10:49:31.698Z,63.39
2018-10-05T10:52:00.710Z,63.17
2018-10-05T10:54:29.715Z,61.85
2018-10-05T10:56:58.583Z,62.38
2018-10-05T10:59:27.445Z,60.63
2018-10-05T11:01:56.305Z,60.90
2018-10-05T11:04:25.543Z,61.44
2018-10-05T11:06:54.440Z,60.80
2018-10-05T11:09:23.313Z,61.42
2018-10-05T11:11:52.256Z,60.76
2018-10-05T11:14:21.120Z,60.75
2018-10-05T11:16:50.047Z,60.23
2018-10-05T11:19:18.965Z,60.32
2018-10-05T11:21:48.207Z,58.95
2018-10-05T11:24:17.024Z,59.77
2018-10-05T11:26:46.109Z,59.74
2018-10-05T11:29:14.971Z,58.63
2018-10-05T11:31:43.899Z,59.64
2018-10-05T11:34:12.721Z,59.64
2018-10-05T11:36:41.745Z,59.31
2018-10-05T11:39:10.592Z,59.12
2018-10-05T11:41:39.474Z,58.10
2018-10-05T11:44:08.350Z,58.62
2018-10-05T11:46:37.220Z,57.86
2018-10-05T11:49:06.224Z,58.43
2018-10-05T11:51:35.121Z,59.01
2018-10-05T11:54:04.036Z,58.17
2018-10-05T11:56:33.091Z,58.77
2018-10-05T11:59:01.915Z,58.88
2018-10-05T12:01:30.844Z,58.34
2018-10-05T12:03:59.684Z,57.79
2018-10-05T12:06:28.545Z,58.81
2018-10-05T12:08:57.485Z,59.17
2018-10-05T12:11:26.477Z,57.06
2018-10-05T12:13:55.497Z,57.20
2018-10-05T12:16:24.319Z,56.53
2018-10-05T12:18:53.196Z,56.85
2018-10-05T12:21:22.135Z,57.03
2018-10-05T12:23:51.060Z,58.29
2018-10-05T12:26:19.976Z,57.53
2018-10-05T12:28:48.889Z,55.90
2018-10-05T12:31:17.750Z,55.97
2018-10-05T12:33:46.777Z,55.57
2018-10-05T12:36:15.685Z,56.34
2018-10-05T12:38:44.632Z,56.09
2018-10-05T12:41:13.449Z,54.89
2018-10-05T12:43:42.619Z,55.74
2018-10-05T12:46:11.564Z,54.96
2018-10-05T12:48:40.476Z,55.80
2018-10-05T12:51:09.300Z,54.56
2018-10-05T12:53:38.116Z,54.97
2018-10-05T12:56:07.000Z,54.65
2018-10-05T12:58:35.911Z,54.64
2018-10-05T13:01:04.838Z,55.04
2018-10-05T13:03:33.764Z,54.46
2018-10-05T13:06:02.617Z,55.06
2018-10-05T13:08:31.435Z,54.89
2018-10-05T13:11:00.452Z,54.11
2018-10-05T13:13:29.315Z,54.78
2018-10-05T13:15:58.200Z,53.96
2018-10-05T13:18:27.029Z,53.85
2018-10-05T13:20:55.921Z,53.46
2018-10-05T13:23:24.792Z,53.35
2018-10-05T13:25:53.858Z,53.23
2018-10-05T13:28:22.810Z,53.86
2018-10-05T13:30:51.627Z,53.65
2018-10-05T13:33:20.424Z,52.97
2018-10-05T13:35:49.396Z,53.91
2018-10-05T13:38:18.234Z,54.36
2018-10-05T13:40:47.102Z,53.02
2018-10-05T13:43:16.233Z,54.15
2018-10-05T13:45:45.091Z,52.87
2018-10-05T13:48:13.954Z,53.28
2018-10-05T13:50:42.924Z,53.21
2018-10-05T13:53:11.763Z,53.22
2018-10-05T13:55:40.654Z,52.61
2018-10-05T13:58:09.507Z,54.00
2018-10-05T14:00:38.403Z,53.10
2018-10-05T14:03:07.244Z,53.56
2018-10-05T14:05:36.045Z,53.56
2018-10-05T14:08:05.294Z,53.21
2018-10-05T14:10:34.098Z,52.75
2018-10-05T14:13:03.081Z,53.21
2018-10-05T14:15:31.933Z,52.97
2018-10-05T14:18:00.851Z,51.96
2018-10-05T14:20:29.669Z,53.18
2018-10-05T14:22:58.567Z,53.13
2018-10-05T14:25:27.539Z,52.68
2018-10-05T14:27:56.413Z,53.17
2018-10-05T14:30:25.257Z,52.42
2018-10-05T14:32:54.159Z,53.06
2018-10-05T14:35:23.003Z,52.54
2018-10-05T14:37:52.234Z,52.77
2018-10-05T14:40:21.014Z,52.83
2018-10-05T14:42:49.864Z,52.52
2018-10-05T14:45:18.693Z,53.24
2018-10-05T14:47:47.511Z,53.53
2018-10-05T14:50:16.401Z,53.19
2018-10-05T14:52:45.282Z,53.69
2018-10-05T14:55:14.093Z,54.08
2018-10-05T14:57:43.440Z,52.96
2018-10-05T15:00:12.247Z,54.02
2018-10-05T15:02:41.223Z,54.63
2018-10-05T15:05:10.431Z,55.39
2018-10-05T15:07:39.229Z,55.10
2018-10-05T15:10:08.181Z,54.67
2018-10-05T15:12:37.110Z,54.77
2018-10-05T15:15:06.802Z,56.62
2018-10-05T15:17:35.642Z,55.33
2018-10-05T15:20:04.917Z,56.12
2018-10-05T15:22:33.846Z,56.16
2018-10-05T15:25:02.707Z,56.25
2018-10-05T15:27:31.961Z,55.73
2018-10-05T15:30:00.836Z,56.87
2018-10-05T15:32:29.790Z,56.68
2018-10-05T15:34:58.639Z,58.05
2018-10-05T15:37:27.469Z,58.17
2018-10-05T15:39:56.430Z,57.79
2018-10-05T15:42:25.307Z,58.38
2018-10-05T15:44:54.175Z,59.29
2018-10-05T15:47:23.055Z,59.23
2018-10-05T15:49:51.926Z,59.52
2018-10-05T15:52:20.841Z,58.92
2018-10-05T15:54:49.674Z,59.18
2018-10-05T15:57:18.522Z,59.79
2018-10-05T15:59:47.371Z,60.53
2018-10-05T16:02:16.285Z,60.79
2018-10-05T16:04:45.209Z,60.31
2018-10-05T16:07:14.084Z,61.96
2018-10-05T16:09:42.987Z,62.28
2018-10-05T16:12:11.950Z,62.41
2018-10-05T16:14:40.807Z,62.81
2018-10-05T16:17:09.766Z,63.29
2018-10-05T16:19:38.644Z,64.01
2018-10-05T16:22:07.501Z,64.89
2018-10-05T16:24:39.361Z,64.34
2018-10-05T16:27:08.683Z,65.23
2018-10-05T16:29:37.883Z,65.66
2018-10-05T16:32:07.835Z,66.10
2018-10-05T16:34:36.689Z,66.38
2018-10-05T16:37:05.993Z,66.71
2018-10-05T16:39:35.111Z,66.92
2018-10-05T16:42:04.560Z,67.24
2018-10-05T16:44:33.443Z,67.76
2018-10-05T16:47:02.375Z,68.64
2018-10-05T16:49:31.212Z,68.46
2018-10-05T16:52:00.135Z,68.81
2018-10-05T16:54:29.017Z,68.73
2018-10-05T16:56:57.943Z,69.15
2018-10-05T16:59:26.810Z,69.55
2018-10-05T17:01:55.923Z,70.03
2018-10-05T17:04:24.931Z,70.29
2018-10-05T17:06:54.105Z,71.12
2018-10-05T17:09:23.000Z,71.38
2018-10-05T17:11:51.873Z,71.85
2018-10-05T17:14:20.735Z,71.98
2018-10-05T17:16:49.560Z,72.93
2018-10-05T17:19:18.481Z,73.13
2018-10-05T17:21:47.296Z,73.61
2018-10-05T17:24:16.178Z,74.33
2018-10-05T17:26:45.020Z,74.93
2018-10-05T17:29:14.216Z,75.09
2018-10-05T17:31:43.335Z,75.60
2018-10-05T17:34:12.290Z,76.24
2018-10-05T17:36:41.175Z,76.77
2018-10-05T17:39:10.644Z,77.26
2018-10-05T17:41:39.555Z,77.47
2018-10-05T17:44:08.731Z,77.68
2018-10-05T17:46:37.593Z,78.59
2018-10-05T17:49:07.073Z,78.54
2018-10-05T17:51:36.669Z,78.27
2018-10-05T17:54:05.652Z,78.79
2018-10-05T17:56:35.079Z,78.66
2018-10-05T17:59:03.888Z,78.74
2018-10-05T18:01:32.806Z,79.24
2018-10-05T18:04:01.745Z,79.10
2018-10-05T18:06:30.891Z,79.26
2018-10-05T18:08:59.853Z,79.68
2018-10-05T18:11:28.722Z,80.04
2018-10-05T18:13:58.241Z,80.26
2018-10-05T18:16:27.137Z,80.48
2018-10-05T18:18:55.963Z,80.39
2018-10-05T18:21:26.088Z,80.99
2018-10-05T18:23:55.396Z,80.67
2018-10-05T18:26:25.528Z,81.34
2018-10-05T18:28:54.400Z,81.85
2018-10-05T18:31:23.280Z,82.38
2018-10-05T18:33:52.798Z,82.36
2018-10-05T18:36:21.747Z,82.72
2018-10-05T18:38:50.561Z,82.88
2018-10-05T18:41:20.054Z,83.20
2018-10-05T18:43:48.835Z,83.30
2018-10-05T18:46:17.856Z,83.71
2018-10-05T18:48:46.677Z,83.74
2018-10-05T18:51:15.642Z,85.31
2018-10-05T18:53:45.132Z,85.04
2018-10-05T18:56:31.153Z,85.75
2018-10-05T18:58:59.988Z,86.44
2018-10-05T19:01:28.851Z,85.42
2018-10-05T19:03:57.757Z,86.25
2018-10-05T19:06:27.525Z,85.92
2018-10-05T19:08:56.808Z,85.86
2018-10-05T19:11:25.863Z,85.90
2018-10-05T19:13:55.337Z,86.31
2018-10-05T19:16:25.441Z,86.34
2018-10-05T19:18:55.330Z,86.46
2018-10-05T19:21:24.218Z,86.84
2018-10-05T19:23:53.204Z,86.51
2018-10-05T19:26:23.213Z,86.98
2018-10-05T19:28:51.935Z,86.83
2018-10-05T19:31:20.877Z,86.98
2018-10-05T19:33:49.717Z,86.92
2018-10-05T19:36:18.603Z,87.20
2018-10-05T19:38:48.278Z,87.39
2018-10-05T19:41:17.672Z,87.56
2018-10-05T19:43:46.692Z,87.37
2018-10-05T19:46:15.590Z,87.45
2018-10-05T19:48:44.552Z,87.42
2018-10-05T19:51:13.500Z,87.60
2018-10-05T19:53:42.531Z,87.97
2018-10-05T19:56:13.257Z,88.32
2018-10-05T19:58:42.202Z,88.33
2018-10-05T20:01:11.699Z,88.44
2018-10-05T20:03:40.584Z,88.56
2018-10-05T20:06:09.456Z,88.67
2018-10-05T20:08:38.321Z,88.68
2018-10-05T20:11:08.476Z,88.78
2018-10-05T20:13:37.439Z,88.70
2018-10-05T20:16:06.375Z,89.04
2018-10-05T20:18:35.284Z,89.19
2018-10-05T20:21:04.093Z,88.88
2018-10-05T20:23:33.341Z,89.36
2018-10-05T20:26:02.956Z,89.30
2018-10-05T20:28:32.161Z,89.36
2018-10-05T20:31:01.074Z,89.76
2018-10-05T20:33:30.125Z,89.93
2018-10-05T20:35:59.033Z,90.13
2018-10-05T20:38:27.961Z,90.54
2018-10-05T20:40:56.928Z,90.54
2018-10-05T20:43:25.733Z,90.65
2018-10-05T20:45:54.690Z,91.02
2018-10-05T20:48:23.500Z,90.95
2018-10-05T20:50:52.459Z,90.94
2018-10-05T20:53:21.294Z,90.88
2018-10-05T20:55:50.140Z,90.55
2018-10-05T20:58:19.036Z,90.75
2018-10-05T21:00:47.844Z,90.86
2018-10-05T21:03:16.801Z,90.52
2018-10-05T21:05:45.800Z,90.50
2018-10-05T21:08:15.760Z,90.43
2018-10-05T21:10:44.749Z,91.37
2018-10-05T21:13:13.730Z,91.11
2018-10-05T21:15:42.625Z,91.29
2018-10-05T21:18:11.500Z,91.09
2018-10-05T21:20:40.300Z,91.16
2018-10-05T21:23:09.176Z,91.52
2018-10-05T21:25:37.986Z,91.35
2018-10-05T21:28:07.545Z,91.30
2018-10-05T21:30:36.396Z,90.81
2018-10-05T21:33:05.364Z,91.03
2018-10-05T21:35:34.299Z,90.91
2018-10-05T21:38:03.248Z,90.59
2018-10-05T21:40:32.128Z,91.39
2018-10-05T21:43:01.277Z,90.93
2018-10-05T21:45:30.127Z,91.35
2018-10-05T21:47:59.051Z,91.45
2018-10-05T21:50:27.875Z,91.73
2018-10-05T21:52:56.923Z,91.30
2018-10-05T21:55:25.787Z,91.51
2018-10-05T21:57:54.620Z,91.73
2018-10-05T22:00:23.984Z,91.96
2018-10-05T22:02:52.906Z,91.98
2018-10-05T22:05:21.811Z,91.31
2018-10-05T22:07:50.695Z,92.18
2018-10-05T22:10:19.549Z,91.79
2018-10-05T22:12:48.484Z,91.21
2018-10-05T22:15:17.380Z,91.04
2018-10-05T22:17:46.342Z,91.43
2018-10-05T22:20:15.205Z,91.71
2018-10-05T22:22:44.022Z,92.09
2018-10-05T22:25:13.196Z,92.46
2018-10-05T22:27:42.003Z,91.55
2018-10-05T22:30:10.937Z,92.10
2018-10-05T22:32:39.758Z,92.26
2018-10-05T22:35:08.691Z,92.39
2018-10-05T22:37:37.615Z,92.45
2018-10-05T22:40:06.659Z,92.55
2018-10-05T22:42:35.528Z,92.45
2018-10-05T22:45:09.361Z,92.40
2018-10-05T22:47:38.264Z,92.37
2018-10-05T22:50:07.202Z,92.91
2018-10-05T22:52:36.139Z,92.75
2018-10-05T22:55:05.121Z,92.71
2018-10-05T22:57:33.944Z,92.53
2018-10-05T23:00:02.877Z,92.88
2018-10-05T23:02:31.741Z,93.18
2018-10-05T23:05:01.208Z,93.09
2018-10-05T23:07:30.066Z,93.12
2018-10-05T23:09:58.926Z,93.06
2018-10-05T23:12:27.862Z,93.15
2018-10-05T23:14:56.770Z,93.28
2018-10-05T23:17:25.733Z,93.10
2018-10-05T23:19:54.557Z,92.70
2018-10-05T23:22:23.418Z,93.16
2018-10-05T23:24:52.343Z,93.53
2018-10-05T23:27:21.224Z,93.69
2018-10-05T23:29:50.142Z,93.75
2018-10-05T23:32:19.027Z,93.49
2018-10-05T23:34:47.845Z,93.45
2018-10-05T23:37:16.799Z,93.07
2018-10-05T23:39:45.621Z,93.00
2018-10-05T23:42:14.568Z,92.88
2018-10-05T23:44:43.409Z,93.21
2018-10-05T23:47:12.351Z,93.02
2018-10-05T23:49:41.187Z,92.82
2018-10-05T23:52:52.107Z,92.83
2018-10-05T23:55:21.118Z,92.86
2018-10-05T23:57:50.058Z,92.63
